AustriaFixed distance
Lindkogel Ultra Trail
7 Apr2024
Distance
54.5km
Finishers
131112 men19 women
Winning time
4:44:28h
Median pace
7.22km/h
Pace distribution
131 finishers · 5.19–11.49 km/h · mean 7.30
Every finisher ran the same 54.5 km course, so these paces are directly comparable.
Histogram of finisher pace. 131 finishers ranged from 5.19 to 11.49 kilometres per hour, with a mean of 7.30 and a median of 7.22. The busiest band is 7.0 to 7.5 kilometres per hour, with 27 finishers.
Results
Ranks 51–100 of 131
| Rank | Runner | Time | Pace | Cat. | Placing |
|---|---|---|---|---|---|
| 51 | HR Coaching | 7:20:15h | 7.43 | M50 | 49th M · 4th M50 |
| 52 | Trail Junkies AT | 7:20:25h | 7.42 | M45 | 50th M · 5th M45 |
| 53 | Voltaigo Gmbh | 7:21:25h | 7.41 | M40 | 51st M · 13th M40 |
| 54 | Team Runsport | 7:21:28h | 7.41 | W23 | 3rd F · 3rd W23 |
| 55 | 7:23:24h | 7.38 | M23 | 52nd M · 19th M23 | |
| 56 | Trailrunning Vienna | 7:23:26h | 7.37 | W40 | 4th F · 1st W40 |
| 56 | Trailrunning Vienna | 7:23:26h | 7.37 | W35 | 4th F · 1st W35 |
| 56 | 7:23:26h | 7.37 | M23 | 53rd M · 20th M23 | |
| 59 | 7:24:04h | 7.36 | M40 | 54th M · 14th M40 | |
| 60 | 7:25:12h | 7.34 | M35 | 55th M · 8th M35 | |
| 61 | 7:26:59h | 7.32 | M23 | 56th M · 21st M23 | |
| 62 | 7:27:53h | 7.30 | M45 | 57th M · 6th M45 | |
| 63 | 7:28:11h | 7.30 | M40 | 58th M · 15th M40 | |
| 64 | 7:29:12h | 7.28 | M23 | 59th M · 22nd M23 | |
| 65 | 7:31:18h | 7.25 | M55 | 60th M · 4th M55 | |
| 66 | 7:32:49h | 7.22 | M23 | 61st M · 23rd M23 | |
| 67 | ULT Heustadlwasser | 7:33:12h | 7.21 | M60 | 62nd M · 1st M60 |
| 68 | 7:34:27h | 7.20 | MU23 | 63rd M · 2nd MU23 | |
| 69 | Utszb | 7:34:51h | 7.19 | M50 | 64th M · 5th M50 |
| 70 | Traunsee Trailrunning ... | 7:35:39h | 7.18 | M23 | 65th M · 24th M23 |
| 71 | Bundesheer | 7:40:44h | 7.10 | MU23 | 66th M · 3rd MU23 |
| 72 | Trailrunning Vienna | 7:41:15h | 7.09 | W55 | 6th F · 1st W55 |
| 73 | 7:42:17h | 7.07 | W35 | 7th F · 2nd W35 | |
| 74 | 7:43:47h | 7.05 | M35 | 67th M · 9th M35 | |
| 75 | 7:46:17h | 7.01 | M55 | 68th M · 5th M55 | |
| 76 | Parkrun | 7:47:49h | 6.99 | M45 | 69th M · 7th M45 |
| 77 | 7:49:29h | 6.96 | W23 | 8th F · 4th W23 | |
| 78 | LC Waldviertel | 7:49:42h | 6.96 | M23 | 70th M · 25th M23 |
| 79 | 7:52:11h | 6.92 | M45 | 71st M · 8th M45 | |
| 80 | 7:52:28h | 6.92 | M40 | 72nd M · 16th M40 | |
| 81 | ULT Heustadlwasser | 7:53:56h | 6.90 | M60 | 73rd M · 2nd M60 |
| 82 | TWO Peaks Endurance | 7:55:56h | 6.87 | M23 | 74th M · 26th M23 |
| 83 | 7:57:55h | 6.84 | M23 | 75th M · 27th M23 | |
| 84 | 7:58:45h | 6.83 | M45 | 76th M · 9th M45 | |
| 85 | 8:02:10h | 6.78 | M50 | 77th M · 6th M50 | |
| 86 | 8:03:36h | 6.76 | M23 | 78th M · 28th M23 | |
| 86 | 8:03:36h | 6.76 | M23 | 78th M · 28th M23 | |
| 88 | Union Dirtrun.Company | 8:04:09h | 6.75 | M23 | 80th M · 30th M23 |
| 89 | 8:09:36h | 6.68 | W23 | 9th F · 5th W23 | |
| 90 | LC Kapelln | 8:13:15h | 6.63 | W40 | 10th F · 2nd W40 |
| 91 | Oeav Königstetten | 8:16:18h | 6.59 | M55 | 81st M · 6th M55 |
| 92 | 8:18:56h | 6.55 | M23 | 82nd M · 31st M23 | |
| 93 | 8:19:21h | 6.55 | MU23 | 83rd M · 4th MU23 | |
| 94 | 8:21:00h | 6.53 | M23 | 84th M · 32nd M23 | |
| 95 | 8:22:42h | 6.50 | M23 | 85th M · 33rd M23 | |
| 96 | SV Generali | 8:26:31h | 6.46 | W45 | 11th F · 1st W45 |
| 97 | #Gipfelstrolzer | 8:26:32h | 6.46 | M35 | 86th M · 10th M35 |
| 98 | Weekly Long Run | 8:28:31h | 6.43 | W55 | 12th F · 2nd W55 |
| 99 | Team Trailsports | 8:33:26h | 6.37 | W23 | 13th F · 6th W23 |
| 100 | 8:34:03h | 6.36 | M40 | 87th M · 17th M40 |
- 51HR Coaching49th M · 4th M50Time7:20:15hPace7.43Cat.M50
- 52Trail Junkies AT50th M · 5th M45Time7:20:25hPace7.42Cat.M45
- 53Voltaigo Gmbh51st M · 13th M40Time7:21:25hPace7.41Cat.M40
- 54Team Runsport3rd F · 3rd W23Time7:21:28hPace7.41Cat.W23
- 5552nd M · 19th M23Time7:23:24hPace7.38Cat.M23
- 56Trailrunning Vienna4th F · 1st W40Time7:23:26hPace7.37Cat.W40
- 56Trailrunning Vienna4th F · 1st W35Time7:23:26hPace7.37Cat.W35
- 5653rd M · 20th M23Time7:23:26hPace7.37Cat.M23
- 5954th M · 14th M40Time7:24:04hPace7.36Cat.M40
- 6055th M · 8th M35Time7:25:12hPace7.34Cat.M35
- 6156th M · 21st M23Time7:26:59hPace7.32Cat.M23
- 6257th M · 6th M45Time7:27:53hPace7.30Cat.M45
- 6358th M · 15th M40Time7:28:11hPace7.30Cat.M40
- 6459th M · 22nd M23Time7:29:12hPace7.28Cat.M23
- 6560th M · 4th M55Time7:31:18hPace7.25Cat.M55
- 6661st M · 23rd M23Time7:32:49hPace7.22Cat.M23
- 67ULT Heustadlwasser62nd M · 1st M60Time7:33:12hPace7.21Cat.M60
- 6863rd M · 2nd MU23Time7:34:27hPace7.20Cat.MU23
- 69Utszb64th M · 5th M50Time7:34:51hPace7.19Cat.M50
- 70Traunsee Trailrunning ...65th M · 24th M23Time7:35:39hPace7.18Cat.M23
- 71Bundesheer66th M · 3rd MU23Time7:40:44hPace7.10Cat.MU23
- 72Trailrunning Vienna6th F · 1st W55Time7:41:15hPace7.09Cat.W55
- 737th F · 2nd W35Time7:42:17hPace7.07Cat.W35
- 7467th M · 9th M35Time7:43:47hPace7.05Cat.M35
- 7568th M · 5th M55Time7:46:17hPace7.01Cat.M55
- 76Parkrun69th M · 7th M45Time7:47:49hPace6.99Cat.M45
- 778th F · 4th W23Time7:49:29hPace6.96Cat.W23
- 78LC Waldviertel70th M · 25th M23Time7:49:42hPace6.96Cat.M23
- 7971st M · 8th M45Time7:52:11hPace6.92Cat.M45
- 8072nd M · 16th M40Time7:52:28hPace6.92Cat.M40
- 81ULT Heustadlwasser73rd M · 2nd M60Time7:53:56hPace6.90Cat.M60
- 82TWO Peaks Endurance74th M · 26th M23Time7:55:56hPace6.87Cat.M23
- 8375th M · 27th M23Time7:57:55hPace6.84Cat.M23
- 8476th M · 9th M45Time7:58:45hPace6.83Cat.M45
- 8577th M · 6th M50Time8:02:10hPace6.78Cat.M50
- 8678th M · 28th M23Time8:03:36hPace6.76Cat.M23
- 8678th M · 28th M23Time8:03:36hPace6.76Cat.M23
- 88Union Dirtrun.Company80th M · 30th M23Time8:04:09hPace6.75Cat.M23
- 899th F · 5th W23Time8:09:36hPace6.68Cat.W23
- 90LC Kapelln10th F · 2nd W40Time8:13:15hPace6.63Cat.W40
- 91Oeav Königstetten81st M · 6th M55Time8:16:18hPace6.59Cat.M55
- 9282nd M · 31st M23Time8:18:56hPace6.55Cat.M23
- 9383rd M · 4th MU23Time8:19:21hPace6.55Cat.MU23
- 9484th M · 32nd M23Time8:21:00hPace6.53Cat.M23
- 9585th M · 33rd M23Time8:22:42hPace6.50Cat.M23
- 96SV Generali11th F · 1st W45Time8:26:31hPace6.46Cat.W45
- 97#Gipfelstrolzer86th M · 10th M35Time8:26:32hPace6.46Cat.M35
- 98Weekly Long Run12th F · 2nd W55Time8:28:31hPace6.43Cat.W55
- 99Team Trailsports13th F · 6th W23Time8:33:26hPace6.37Cat.W23
- 10087th M · 17th M40Time8:34:03hPace6.36Cat.M40
Showing ranks 51–100 of 131